createdAt,value
2023-01-08T00:00:47.180Z,96489.22
2023-01-08T00:03:13.882Z,96484.59
2023-01-08T00:05:40.403Z,96479.34
2023-01-08T00:08:08.544Z,96479.75
2023-01-08T00:10:35.692Z,96476.13
2023-01-08T00:13:02.237Z,96479.13
2023-01-08T00:15:30.177Z,96485.22
2023-01-08T00:17:57.182Z,96486.16
2023-01-08T00:20:23.868Z,96480.59
2023-01-08T00:22:50.613Z,96482.84
2023-01-08T00:25:17.340Z,96478.75
2023-01-08T00:27:51.091Z,96478.41
2023-01-08T00:30:17.577Z,96470.66
2023-01-08T00:32:44.011Z,96476.88
2023-01-08T00:35:10.546Z,96464.31
2023-01-08T00:37:37.027Z,96474.59
2023-01-08T00:40:03.616Z,96330.22
2023-01-08T00:42:30.070Z,96460.03
2023-01-08T00:44:56.578Z,96468.03
2023-01-08T00:47:23.009Z,96449.88
2023-01-08T00:49:49.447Z,96444.34
2023-01-08T00:52:15.976Z,96443.63
2023-01-08T00:54:42.416Z,96435.25
2023-01-08T00:57:08.858Z,96428.72
2023-01-08T00:59:35.511Z,96438.09
2023-01-08T01:02:02.104Z,96441.13
2023-01-08T01:04:28.798Z,96445.16
2023-01-08T01:06:55.365Z,96432.69
2023-01-08T01:09:21.821Z,96434.03
2023-01-08T01:11:48.265Z,96435.53
2023-01-08T01:14:14.771Z,96435.66
2023-01-08T01:16:41.987Z,96432.38
2023-01-08T01:19:08.529Z,96441.31
2023-01-08T01:21:35.071Z,96447.63
2023-01-08T01:24:02.687Z,96438.53
2023-01-08T01:26:29.401Z,96435.66
2023-01-08T01:28:56.204Z,96434.97
2023-01-08T01:31:23.013Z,96431.59
2023-01-08T01:33:49.848Z,96429.25
2023-01-08T01:39:51.341Z,96429.13
2023-01-08T01:42:36.566Z,96433.84
2023-01-08T01:45:23.274Z,96421.59
2023-01-08T01:47:55.176Z,96427.81
2023-01-08T01:50:31.435Z,96424.44
2023-01-08T01:53:00.948Z,96425.25
2023-01-08T01:55:27.752Z,96429.56
2023-01-08T01:58:14.474Z,96425.78
2023-01-08T02:00:41.141Z,96432.81
2023-01-08T02:03:07.661Z,96427.53
2023-01-08T02:05:38.194Z,96424.88
2023-01-08T02:08:10.092Z,96424.25
2023-01-08T02:10:36.546Z,96413.44
2023-01-08T02:13:08.390Z,96408.31
2023-01-08T02:15:36.509Z,96408.38
2023-01-08T02:18:05.761Z,96410.00
2023-01-08T02:20:33.616Z,96407.66
2023-01-08T02:23:15.522Z,96395.75
2023-01-08T02:26:00.634Z,96399.84
2023-01-08T02:28:27.185Z,96400.88
2023-01-08T02:30:53.746Z,96401.69
2023-01-08T02:33:20.268Z,96403.91
2023-01-08T02:35:52.414Z,96402.81
2023-01-08T02:38:18.855Z,96399.19
2023-01-08T02:40:51.395Z,96392.97
2023-01-08T02:43:18.350Z,96394.47
2023-01-08T02:45:48.506Z,96384.88
2023-01-08T02:48:24.215Z,96385.53
2023-01-08T02:50:58.965Z,96383.16
2023-01-08T02:53:26.549Z,96389.00
2023-01-08T02:55:57.231Z,96409.63
2023-01-08T02:58:23.896Z,96409.63
2023-01-08T03:00:50.474Z,96399.47
2023-01-08T03:03:24.144Z,96394.31
2023-01-08T03:05:51.714Z,96399.19
2023-01-08T03:08:18.210Z,96391.47
2023-01-08T03:10:45.613Z,96392.16
2023-01-08T03:13:13.394Z,96401.25
2023-01-08T03:15:44.312Z,96401.81
2023-01-08T03:18:11.419Z,96402.38
2023-01-08T03:20:38.221Z,96401.34
2023-01-08T03:23:06.313Z,96396.41
2023-01-08T03:25:32.732Z,96391.13
2023-01-08T03:28:00.768Z,96386.94
2023-01-08T03:30:27.228Z,96381.69
2023-01-08T03:32:53.895Z,96381.78
2023-01-08T03:35:20.842Z,96378.38
2023-01-08T03:37:49.438Z,96380.72
2023-01-08T03:40:23.745Z,96385.19
2023-01-08T03:42:50.283Z,96367.78
2023-01-08T03:45:16.732Z,96377.78
2023-01-08T03:47:43.287Z,96378.97
2023-01-08T03:50:11.448Z,96379.78
2023-01-08T03:52:37.921Z,96376.97
2023-01-08T03:55:04.634Z,96375.47
2023-01-08T03:57:31.109Z,96370.88
2023-01-08T03:59:57.624Z,96363.84
2023-01-08T04:02:24.196Z,96362.78
2023-01-08T04:04:50.797Z,96368.72
2023-01-08T04:07:17.260Z,96356.53
2023-01-08T04:09:43.717Z,96357.06
2023-01-08T04:12:10.168Z,96355.72
2023-01-08T04:14:36.623Z,96356.78
2023-01-08T04:17:03.144Z,96352.28
2023-01-08T04:19:29.605Z,96355.72
2023-01-08T04:21:56.052Z,96355.72
2023-01-08T04:24:22.603Z,96357.16
2023-01-08T04:26:49.064Z,96355.53
2023-01-08T04:29:15.534Z,96353.38
2023-01-08T04:31:41.978Z,96360.97
2023-01-08T04:34:08.428Z,96358.28
2023-01-08T04:36:34.891Z,96344.72
2023-01-08T04:39:01.369Z,96352.00
2023-01-08T04:41:27.844Z,96352.94
2023-01-08T04:43:54.324Z,96359.28
2023-01-08T04:46:20.883Z,96351.72
2023-01-08T04:48:47.470Z,96360.38
2023-01-08T04:51:14.030Z,96355.22
2023-01-08T04:53:41.519Z,96359.94
2023-01-08T04:56:08.765Z,96350.75
2023-01-08T04:58:35.476Z,96353.41
2023-01-08T05:01:02.100Z,96343.63
2023-01-08T05:03:28.622Z,96343.63
2023-01-08T05:05:55.170Z,96330.53
2023-01-08T05:08:21.707Z,96334.06
2023-01-08T05:10:48.229Z,96325.34
2023-01-08T05:13:14.683Z,96327.06
2023-01-08T05:15:41.216Z,96327.44
2023-01-08T05:18:07.742Z,96325.81
2023-01-08T05:20:34.263Z,96313.88
2023-01-08T05:23:01.309Z,96317.78
2023-01-08T05:25:27.785Z,96308.72
2023-01-08T05:27:54.246Z,96310.34
2023-01-08T05:30:20.785Z,96310.19
2023-01-08T05:32:47.292Z,96308.13
2023-01-08T05:35:13.773Z,96305.41
2023-01-08T05:37:40.880Z,96309.03
2023-01-08T05:40:07.603Z,96313.47
2023-01-08T05:42:34.575Z,96316.72
2023-01-08T05:45:01.347Z,96311.72
2023-01-08T05:47:31.276Z,96311.16
2023-01-08T05:49:57.816Z,96314.44
2023-01-08T05:52:24.278Z,96306.72
2023-01-08T05:54:50.743Z,96301.44
2023-01-08T05:57:17.279Z,96315.47
2023-01-08T05:59:43.741Z,96302.91
2023-01-08T06:02:10.212Z,96307.47
2023-01-08T06:04:36.786Z,96301.38
2023-01-08T06:07:03.275Z,96295.56
2023-01-08T06:09:29.747Z,96290.69
2023-01-08T06:11:58.179Z,96293.50
2023-01-08T06:14:24.795Z,96280.94
2023-01-08T06:16:51.257Z,96276.50
2023-01-08T06:19:19.096Z,96283.38
2023-01-08T06:21:45.686Z,96279.19
2023-01-08T06:24:12.191Z,96282.13
2023-01-08T06:26:38.692Z,96281.06
2023-01-08T06:29:05.193Z,96281.25
2023-01-08T06:31:31.756Z,96281.81
2023-01-08T06:33:58.262Z,96279.94
2023-01-08T06:36:24.810Z,96280.88
2023-01-08T06:38:51.318Z,96277.94
2023-01-08T06:41:17.940Z,96283.13
2023-01-08T06:43:44.422Z,96276.78
2023-01-08T06:46:11.026Z,96279.53
2023-01-08T06:48:37.644Z,96273.81
2023-01-08T06:51:04.227Z,96268.09
2023-01-08T06:53:30.740Z,96267.44
2023-01-08T06:55:58.673Z,96266.63
2023-01-08T06:58:28.391Z,96277.16
2023-01-08T07:00:54.913Z,96275.41
2023-01-08T07:03:21.435Z,96273.25
2023-01-08T07:05:47.960Z,96276.53
2023-01-08T07:08:14.840Z,96278.16
2023-01-08T07:10:41.610Z,96270.72
2023-01-08T07:13:09.203Z,96271.41
2023-01-08T07:15:36.272Z,96268.44
2023-01-08T07:18:06.398Z,96259.53
2023-01-08T07:20:33.381Z,96256.69
2023-01-08T07:23:06.647Z,96249.53
2023-01-08T07:25:33.229Z,96252.00
2023-01-08T07:28:00.787Z,96248.25
2023-01-08T07:30:30.125Z,96244.56
2023-01-08T07:33:00.644Z,96240.00
2023-01-08T07:35:27.382Z,96239.03
2023-01-08T07:37:53.918Z,96241.34
2023-01-08T07:40:20.528Z,96238.09
2023-01-08T07:42:47.046Z,96229.41
2023-01-08T07:45:13.542Z,96238.66
2023-01-08T07:47:40.063Z,96226.97
2023-01-08T07:50:06.720Z,96228.03
2023-01-08T07:52:33.173Z,96228.19
2023-01-08T07:54:59.659Z,96230.38
2023-01-08T07:57:26.159Z,96231.44
2023-01-08T07:59:52.664Z,96225.25
2023-01-08T08:02:19.337Z,96228.19
2023-01-08T08:04:45.866Z,96223.47
2023-01-08T08:07:12.363Z,96223.06
2023-01-08T08:09:38.859Z,96226.34
2023-01-08T08:12:05.431Z,96228.81
2023-01-08T08:14:31.905Z,96225.94
2023-01-08T08:16:58.411Z,96217.84
2023-01-08T08:19:24.898Z,96218.50
2023-01-08T08:21:51.358Z,96218.25
2023-01-08T08:24:17.839Z,96224.75
2023-01-08T08:26:44.355Z,96225.97
2023-01-08T08:29:10.892Z,96231.53
2023-01-08T08:31:37.443Z,96228.53
2023-01-08T08:34:03.918Z,96229.19
2023-01-08T08:36:30.485Z,96232.56
2023-01-08T08:38:57.047Z,96233.47
2023-01-08T08:41:23.479Z,96228.59
2023-01-08T08:43:51.410Z,96222.91
2023-01-08T08:46:18.029Z,96216.94
2023-01-08T08:48:45.282Z,96216.97
2023-01-08T08:51:11.916Z,96214.97
2023-01-08T08:53:38.405Z,96220.31
2023-01-08T08:56:05.030Z,96218.84
2023-01-08T08:58:31.506Z,96214.53
2023-01-08T09:01:01.092Z,96205.13
2023-01-08T09:03:27.631Z,96204.06
2023-01-08T09:05:54.167Z,96204.59
2023-01-08T09:08:20.678Z,96202.69
2023-01-08T09:10:47.143Z,96193.56
2023-01-08T09:13:13.647Z,96193.94
2023-01-08T09:15:40.169Z,96191.16
2023-01-08T09:18:06.667Z,96180.94
2023-01-08T09:20:33.133Z,96175.56
2023-01-08T09:22:59.884Z,96176.06
2023-01-08T09:25:26.422Z,96168.53
2023-01-08T09:28:02.828Z,96161.84
2023-01-08T09:30:29.370Z,96149.94
2023-01-08T09:33:03.097Z,96161.94
2023-01-08T09:35:29.922Z,96158.53
2023-01-08T09:37:56.444Z,96146.13
2023-01-08T09:40:23.902Z,96142.31
2023-01-08T09:43:00.382Z,96140.88
2023-01-08T09:45:30.227Z,96135.25
2023-01-08T09:47:57.243Z,96129.59
2023-01-08T09:50:23.811Z,96121.16
2023-01-08T09:52:50.339Z,96124.38
2023-01-08T09:55:16.832Z,96115.97
2023-01-08T09:57:43.901Z,96107.84
2023-01-08T10:00:14.339Z,96100.38
2023-01-08T10:02:41.125Z,96100.34
2023-01-08T10:05:14.849Z,96097.47
2023-01-08T10:07:41.355Z,96102.28
2023-01-08T10:10:28.178Z,96098.09
2023-01-08T10:12:54.685Z,96098.38
2023-01-08T10:15:21.596Z,96090.94
2023-01-08T10:17:57.272Z,96094.66
2023-01-08T10:20:24.387Z,96096.72
2023-01-08T10:22:54.179Z,96083.00
2023-01-08T10:25:21.547Z,96073.59
2023-01-08T10:27:52.070Z,96072.28
2023-01-08T10:30:19.398Z,96082.13
2023-01-08T10:32:52.007Z,96080.16
2023-01-08T10:35:20.305Z,96079.22
2023-01-08T10:37:47.810Z,96084.03
2023-01-08T10:40:20.434Z,96075.63
2023-01-08T10:42:46.909Z,96081.94
2023-01-08T10:45:26.243Z,96070.78
2023-01-08T10:47:56.785Z,96066.59
2023-01-08T10:50:24.477Z,96073.88
2023-01-08T10:52:58.337Z,96075.66
2023-01-08T10:55:26.033Z,96075.19
2023-01-08T10:57:53.555Z,96066.47
2023-01-08T11:00:27.248Z,96054.69
2023-01-08T11:02:53.799Z,96061.47
2023-01-08T11:05:20.569Z,96068.94
2023-01-08T11:07:53.531Z,96060.03
2023-01-08T11:10:23.856Z,96056.31
2023-01-08T11:12:54.387Z,96048.69
2023-01-08T11:15:20.901Z,96040.94
2023-01-08T11:17:47.404Z,96043.34
2023-01-08T11:20:24.104Z,96034.09
2023-01-08T11:22:50.828Z,96015.53
2023-01-08T11:25:23.229Z,96008.88
2023-01-08T11:27:49.704Z,96000.13
2023-01-08T11:30:23.478Z,95999.16
2023-01-08T11:33:02.145Z,96002.38
2023-01-08T11:35:30.062Z,95998.47
2023-01-08T11:38:00.246Z,95985.69
2023-01-08T11:40:26.767Z,95982.31
2023-01-08T11:43:03.650Z,95985.81
2023-01-08T11:45:44.074Z,95985.97
2023-01-08T11:48:16.584Z,95985.28
2023-01-08T11:51:02.048Z,95978.63
2023-01-08T11:53:28.484Z,95980.69
2023-01-08T11:55:58.677Z,95983.78
2023-01-08T11:58:31.393Z,95980.56
2023-01-08T12:00:57.844Z,95999.41
2023-01-08T12:03:24.356Z,95990.84
2023-01-08T12:06:01.549Z,95992.63
2023-01-08T12:08:28.043Z,95996.00
2023-01-08T12:11:00.127Z,95997.00
2023-01-08T12:13:38.594Z,95987.47
2023-01-08T12:16:17.405Z,95995.50
2023-01-08T12:18:47.126Z,96002.00
2023-01-08T12:21:14.161Z,96008.13
2023-01-08T12:23:52.892Z,96018.28
2023-01-08T12:26:19.416Z,96012.28
2023-01-08T12:28:53.117Z,96010.97
2023-01-08T12:31:22.803Z,96015.19
2023-01-08T12:33:57.214Z,96011.16
2023-01-08T12:36:44.441Z,96000.19
2023-01-08T12:39:12.727Z,96012.78
2023-01-08T12:41:39.464Z,96006.00
2023-01-08T12:44:06.537Z,96011.16
2023-01-08T12:46:33.885Z,96004.88
2023-01-08T12:49:00.396Z,96008.44
2023-01-08T12:51:29.128Z,96001.84
2023-01-08T12:54:07.819Z,95995.84
2023-01-08T12:56:34.284Z,95985.06
2023-01-08T12:59:12.228Z,95993.91
2023-01-08T13:01:42.575Z,95999.22
2023-01-08T13:04:09.617Z,95990.31
2023-01-08T13:06:36.152Z,95990.31
2023-01-08T13:09:02.836Z,95989.78
2023-01-08T13:11:30.723Z,95991.53
2023-01-08T13:14:06.937Z,95970.50
2023-01-08T13:16:39.079Z,95979.56
2023-01-08T13:19:05.685Z,95975.69
2023-01-08T13:21:36.252Z,95983.72
2023-01-08T13:24:23.028Z,95986.97
2023-01-08T13:26:49.527Z,95983.44
2023-01-08T13:29:26.819Z,95977.59
2023-01-08T13:31:53.366Z,95988.75
2023-01-08T13:34:35.358Z,95978.88
2023-01-08T13:37:01.918Z,95975.63
2023-01-08T13:39:32.579Z,95978.88
2023-01-08T13:41:59.073Z,95979.63
2023-01-08T13:44:29.626Z,95987.25
2023-01-08T13:46:57.044Z,95974.78
2023-01-08T13:49:36.852Z,95986.19
2023-01-08T13:52:03.414Z,95981.88
2023-01-08T13:54:35.469Z,95990.72
2023-01-08T13:57:04.162Z,95979.06
2023-01-08T13:59:33.804Z,95985.19
2023-01-08T14:02:01.411Z,95976.84
2023-01-08T14:04:28.071Z,95968.97
2023-01-08T14:07:04.859Z,95965.69
2023-01-08T14:09:33.218Z,95961.22
2023-01-08T14:12:01.042Z,95961.50
2023-01-08T14:14:27.476Z,95954.28
2023-01-08T14:16:54.107Z,95956.84
2023-01-08T14:19:21.268Z,95951.69
2023-01-08T14:21:51.222Z,95938.78
2023-01-08T14:24:17.991Z,95927.94
2023-01-08T14:26:46.940Z,95934.72
2023-01-08T14:29:17.116Z,95916.16
2023-01-08T14:31:47.228Z,95924.72
2023-01-08T14:34:13.737Z,95917.41
2023-01-08T14:36:40.962Z,95925.44
2023-01-08T14:39:21.872Z,95905.13
2023-01-08T14:42:09.575Z,95911.25
2023-01-08T14:44:40.447Z,95893.00
2023-01-08T14:47:13.941Z,95898.19
2023-01-08T14:49:44.825Z,95906.38
2023-01-08T14:52:12.142Z,95898.94
2023-01-08T14:54:38.567Z,95906.81
2023-01-08T14:57:05.035Z,95905.53
2023-01-08T14:59:33.330Z,95910.97
2023-01-08T15:02:40.401Z,95909.53
2023-01-08T15:05:14.879Z,95898.88
2023-01-08T15:07:42.078Z,95902.59
2023-01-08T15:10:31.913Z,95896.09
2023-01-08T15:13:00.881Z,95906.44
2023-01-08T15:15:27.353Z,95913.06
2023-01-08T15:17:54.021Z,95895.94
2023-01-08T15:20:20.780Z,95901.91
2023-01-08T15:22:47.204Z,95902.13
2023-01-08T15:25:17.172Z,95901.47
2023-01-08T15:27:49.154Z,95893.06
2023-01-08T15:30:26.121Z,95888.56
2023-01-08T15:32:52.784Z,95883.84
2023-01-08T15:35:19.268Z,95881.25
2023-01-08T15:37:45.776Z,95885.63
2023-01-08T15:40:12.404Z,95882.38
2023-01-08T15:43:17.392Z,95887.41
2023-01-08T15:45:44.824Z,95885.28
2023-01-08T15:48:11.279Z,95885.56
2023-01-08T15:50:38.945Z,95886.03
2023-01-08T15:53:25.677Z,95882.78
2023-01-08T15:55:52.194Z,95890.97
2023-01-08T15:58:18.836Z,95877.28
2023-01-08T16:00:45.630Z,95885.81
2023-01-08T16:03:12.600Z,95880.97
2023-01-08T16:05:39.127Z,95876.31
2023-01-08T16:08:05.809Z,95880.81
2023-01-08T16:10:32.559Z,95875.16
2023-01-08T16:12:59.970Z,95865.94
2023-01-08T16:15:28.021Z,95869.00
2023-01-08T16:17:54.614Z,95873.38
2023-01-08T16:20:21.060Z,95868.22
2023-01-08T16:22:47.571Z,95862.75
2023-01-08T16:25:14.494Z,95870.94
2023-01-08T16:27:41.202Z,95873.69
2023-01-08T16:30:08.228Z,95866.41
2023-01-08T16:32:34.775Z,95874.88
2023-01-08T16:35:01.208Z,95874.09
2023-01-08T16:37:27.864Z,95876.88
2023-01-08T16:39:54.528Z,95868.16
2023-01-08T16:42:21.012Z,95869.56
2023-01-08T16:44:47.511Z,95857.19
2023-01-08T16:47:14.011Z,95847.69
2023-01-08T16:49:41.760Z,95859.91
2023-01-08T16:52:09.426Z,95862.66
2023-01-08T16:54:36.058Z,95867.00
2023-01-08T16:57:02.549Z,95869.72
2023-01-08T16:59:29.022Z,95864.56
2023-01-08T17:01:55.584Z,95859.84
2023-01-08T17:04:22.069Z,95864.06
2023-01-08T17:06:48.531Z,95854.91
2023-01-08T17:09:15.094Z,95862.47
2023-01-08T17:11:41.653Z,95866.19
2023-01-08T17:14:08.449Z,95862.81
2023-01-08T17:16:35.112Z,95867.97
2023-01-08T17:19:01.744Z,95861.19
2023-01-08T17:21:28.179Z,95858.63
2023-01-08T17:23:54.789Z,95859.69
2023-01-08T17:26:21.377Z,95855.34
2023-01-08T17:28:48.026Z,95854.38
2023-01-08T17:31:15.492Z,95857.31
2023-01-08T17:33:42.114Z,95848.63
2023-01-08T17:36:15.616Z,95855.44
2023-01-08T17:38:43.288Z,95847.69
2023-01-08T17:41:10.168Z,95847.00
2023-01-08T17:43:36.880Z,95839.59
2023-01-08T17:46:06.943Z,95826.84
2023-01-08T17:48:33.670Z,95839.88
2023-01-08T17:51:41.366Z,95831.16
2023-01-08T17:54:17.302Z,95828.75
2023-01-08T17:56:43.785Z,95826.19
2023-01-08T17:59:13.937Z,95827.94
2023-01-08T18:01:40.391Z,95821.00
2023-01-08T18:04:06.984Z,95821.00
2023-01-08T18:06:33.596Z,95820.22
2023-01-08T18:09:00.309Z,95824.41
2023-01-08T18:11:27.144Z,95823.59
2023-01-08T18:14:00.291Z,95819.56
2023-01-08T18:16:26.915Z,95822.28
2023-01-08T18:18:53.501Z,95823.22
2023-01-08T18:21:20.006Z,95826.78
2023-01-08T18:23:49.542Z,95830.31
2023-01-08T18:26:16.371Z,95829.66
2023-01-08T18:28:42.969Z,95826.41
2023-01-08T18:31:10.187Z,95824.50
2023-01-08T18:33:36.933Z,95819.34
2023-01-08T18:36:06.351Z,95826.94
2023-01-08T18:38:33.117Z,95821.47
2023-01-08T18:40:59.681Z,95822.44
2023-01-08T18:43:28.525Z,95819.03
2023-01-08T18:45:58.798Z,95814.84
2023-01-08T18:48:25.261Z,95826.13
2023-01-08T18:50:51.727Z,95823.72
2023-01-08T18:53:20.009Z,95817.44
2023-01-08T18:55:46.496Z,95813.88
2023-01-08T18:58:13.024Z,95816.31
2023-01-08T19:00:39.557Z,95805.38
2023-01-08T19:03:08.998Z,95795.06
2023-01-08T19:05:41.992Z,95798.34
2023-01-08T19:08:08.567Z,95794.00
2023-01-08T19:10:35.687Z,95797.41
2023-01-08T19:13:02.217Z,95792.84
2023-01-08T19:15:28.857Z,95792.84
2023-01-08T19:17:55.347Z,95773.53
2023-01-08T19:20:21.830Z,95770.50
2023-01-08T19:22:48.371Z,95768.09
2023-01-08T19:25:15.882Z,95777.91
2023-01-08T19:27:42.480Z,95763.75
2023-01-08T19:30:09.461Z,95778.09
2023-01-08T19:32:35.971Z,95785.03
2023-01-08T19:35:02.789Z,95769.72
2023-01-08T19:37:29.364Z,95763.47
2023-01-08T19:40:00.458Z,95756.53
2023-01-08T19:42:48.881Z,95754.09
2023-01-08T19:45:15.406Z,95744.44
2023-01-08T19:47:42.008Z,95739.28
2023-01-08T19:50:10.264Z,95740.03
2023-01-08T19:52:36.799Z,95744.69
2023-01-08T19:55:03.644Z,95740.34
2023-01-08T19:57:30.130Z,95739.72
2023-01-08T19:59:56.603Z,95749.88
2023-01-08T20:02:23.191Z,95758.41
2023-01-08T20:04:49.769Z,95764.06
2023-01-08T20:07:16.279Z,95774.25
2023-01-08T20:09:42.813Z,95764.72
2023-01-08T20:12:09.638Z,95761.00
2023-01-08T20:14:36.196Z,95761.38
2023-01-08T20:17:02.680Z,95735.56
2023-01-08T20:19:29.185Z,95733.16
2023-01-08T20:21:55.758Z,95736.69
2023-01-08T20:24:22.229Z,95737.16
2023-01-08T20:26:48.773Z,95731.19
2023-01-08T20:29:15.485Z,95740.84
2023-01-08T20:31:42.218Z,95743.41
2023-01-08T20:34:10.481Z,95736.81
2023-01-08T20:36:36.997Z,95734.88
2023-01-08T20:39:06.751Z,95738.25
2023-01-08T20:41:33.312Z,95732.44
2023-01-08T20:44:01.380Z,95731.00
2023-01-08T20:46:28.671Z,95725.97
2023-01-08T20:48:55.909Z,95721.94
2023-01-08T20:51:22.493Z,95711.78
2023-01-08T20:54:01.681Z,95700.97
2023-01-08T20:56:28.206Z,95696.94
2023-01-08T20:58:54.783Z,95693.84
2023-01-08T21:01:21.953Z,95709.16
2023-01-08T21:03:49.401Z,95704.47
2023-01-08T21:06:16.694Z,95710.91
2023-01-08T21:08:43.783Z,95716.41
2023-01-08T21:11:10.546Z,95721.84
2023-01-08T21:13:37.920Z,95702.84
2023-01-08T21:16:06.399Z,95708.50
2023-01-08T21:18:33.126Z,95693.50
2023-01-08T21:21:00.673Z,95693.13
2023-01-08T21:23:28.263Z,95698.78
2023-01-08T21:25:58.126Z,95696.31
2023-01-08T21:28:25.036Z,95688.13
2023-01-08T21:30:51.598Z,95683.84
2023-01-08T21:33:18.065Z,95674.50
2023-01-08T21:35:44.553Z,95674.16
2023-01-08T21:38:11.554Z,95666.06
2023-01-08T21:40:38.093Z,95662.53
2023-01-08T21:43:23.542Z,95672.34
2023-01-08T21:45:50.876Z,95666.53
2023-01-08T21:48:17.355Z,95663.94
2023-01-08T21:50:43.875Z,95669.94
2023-01-08T21:53:29.051Z,95668.00
2023-01-08T21:55:55.562Z,95677.78
2023-01-08T21:58:22.139Z,95691.47
2023-01-08T22:00:48.666Z,95678.41
2023-01-08T22:03:15.152Z,95677.59
2023-01-08T22:05:41.640Z,95681.94
2023-01-08T22:08:09.476Z,95680.38
2023-01-08T22:10:36.044Z,95674.72
2023-01-08T22:13:02.526Z,95683.50
2023-01-08T22:15:28.980Z,95684.28
2023-01-08T22:17:55.519Z,95684.56
2023-01-08T22:20:22.027Z,95669.25
2023-01-08T22:22:49.165Z,95653.44
2023-01-08T22:25:15.945Z,95660.16
2023-01-08T22:27:42.414Z,95648.47
2023-01-08T22:30:09.970Z,95646.63
2023-01-08T22:32:36.471Z,95649.66
2023-01-08T22:35:03.050Z,95646.34
2023-01-08T22:37:29.510Z,95643.81
2023-01-08T22:39:56.108Z,95634.66
2023-01-08T22:42:23.275Z,95632.66
2023-01-08T22:45:00.700Z,95617.94
2023-01-08T22:47:27.728Z,95608.94
2023-01-08T22:49:54.247Z,95607.06
2023-01-08T22:52:20.713Z,95606.56
2023-01-08T22:54:47.254Z,95604.00
2023-01-08T22:57:13.828Z,95598.31
2023-01-08T22:59:40.392Z,95592.31
2023-01-08T23:02:06.879Z,95592.59
2023-01-08T23:04:33.420Z,95582.66
2023-01-08T23:06:59.906Z,95578.34
2023-01-08T23:09:26.348Z,95567.66
2023-01-08T23:11:53.014Z,95572.44
2023-01-08T23:14:19.709Z,95574.50
2023-01-08T23:16:46.271Z,95573.13
2023-01-08T23:19:12.824Z,95579.06
2023-01-08T23:21:39.386Z,95569.22
2023-01-08T23:24:07.129Z,95565.84
2023-01-08T23:26:33.600Z,95575.47
2023-01-08T23:29:00.722Z,95575.16
2023-01-08T23:31:27.743Z,95569.66
2023-01-08T23:33:54.372Z,95568.19
2023-01-08T23:36:21.484Z,95557.09
2023-01-08T23:38:49.661Z,95552.75
2023-01-08T23:41:19.530Z,95551.16
2023-01-08T23:43:46.330Z,95547.09
2023-01-08T23:46:13.592Z,95545.63
2023-01-08T23:48:40.158Z,95539.22
2023-01-08T23:51:06.962Z,95532.47
2023-01-08T23:53:33.451Z,95531.25
2023-01-08T23:55:59.939Z,95534.34
2023-01-08T23:58:26.431Z,95528.06
